createdAt,value
2022-11-24T00:01:11.388Z,19.39
2022-11-24T00:03:41.611Z,19.35
2022-11-24T00:06:14.115Z,19.31
2022-11-24T00:08:47.411Z,19.24
2022-11-24T00:11:20.951Z,19.21
2022-11-24T00:13:51.903Z,19.21
2022-11-24T00:16:28.893Z,19.19
2022-11-24T00:19:01.668Z,19.11
2022-11-24T00:21:33.807Z,19.10
2022-11-24T00:24:04.629Z,19.03
2022-11-24T00:26:36.739Z,18.98
2022-11-24T00:29:07.650Z,19.00
2022-11-24T00:31:41.376Z,18.94
2022-11-24T00:34:16.845Z,18.91
2022-11-24T00:36:47.767Z,18.87
2022-11-24T00:39:18.642Z,18.84
2022-11-24T00:41:49.548Z,18.78
2022-11-24T00:44:19.414Z,18.74
2022-11-24T00:46:49.784Z,18.71
2022-11-24T00:49:20.215Z,18.73
2022-11-24T00:51:50.078Z,18.71
2022-11-24T00:54:20.089Z,18.66
2022-11-24T00:56:50.011Z,18.64
2022-11-24T00:59:19.926Z,18.63
2022-11-24T01:01:50.227Z,18.57
2022-11-24T01:04:20.259Z,18.55
2022-11-24T01:06:50.681Z,18.45
2022-11-24T01:09:20.571Z,18.38
2022-11-24T01:12:05.576Z,18.32
2022-11-24T01:14:36.219Z,18.32
2022-11-24T01:17:07.084Z,18.28
2022-11-24T01:19:37.362Z,18.28
2022-11-24T01:22:08.026Z,18.30
2022-11-24T01:24:38.166Z,18.24
2022-11-24T01:27:09.189Z,18.19
2022-11-24T01:29:39.759Z,18.15
2022-11-24T01:32:09.983Z,18.10
2022-11-24T01:34:39.921Z,18.08
2022-11-24T01:37:09.883Z,18.08
2022-11-24T01:39:40.817Z,18.05
2022-11-24T01:42:11.077Z,18.04
2022-11-24T01:44:46.176Z,17.94
2022-11-24T01:47:25.461Z,17.94
2022-11-24T01:50:00.319Z,17.92
2022-11-24T01:52:35.818Z,17.89
2022-11-24T01:55:11.338Z,17.89
2022-11-24T01:57:48.096Z,18.01
2022-11-24T02:00:19.953Z,17.87
2022-11-24T02:02:50.719Z,17.78
2022-11-24T02:05:39.422Z,17.70
2022-11-24T02:08:20.305Z,17.64
2022-11-24T02:10:51.564Z,17.66
2022-11-24T02:13:23.184Z,17.61
2022-11-24T02:15:55.484Z,17.57
2022-11-24T02:18:25.901Z,17.51
2022-11-24T02:20:56.886Z,17.51
2022-11-24T02:23:38.610Z,17.47
2022-11-24T02:26:33.199Z,17.40
2022-11-24T02:29:05.121Z,17.39
2022-11-24T02:31:35.641Z,17.36
2022-11-24T02:34:05.685Z,17.29
2022-11-24T02:36:36.080Z,17.29
2022-11-24T02:39:12.585Z,17.29
2022-11-24T02:41:49.613Z,17.29
2022-11-24T02:44:21.996Z,17.23
2022-11-24T02:46:51.966Z,17.23
2022-11-24T02:49:22.104Z,17.18
2022-11-24T02:51:52.013Z,17.13
2022-11-24T02:54:22.109Z,17.06
2022-11-24T02:56:52.980Z,17.06
2022-11-24T02:59:24.061Z,17.05
2022-11-24T03:01:54.443Z,17.05
2022-11-24T03:04:24.464Z,17.02
2022-11-24T03:06:54.339Z,17.00
2022-11-24T03:09:24.408Z,16.95
2022-11-24T03:11:54.257Z,16.95
2022-11-24T03:14:24.592Z,16.93
2022-11-24T03:16:54.490Z,16.90
2022-11-24T03:19:24.378Z,16.90
2022-11-24T03:21:54.233Z,16.85
2022-11-24T03:24:24.144Z,16.79
2022-11-24T03:26:54.037Z,16.75
2022-11-24T03:29:24.450Z,16.72
2022-11-24T03:31:54.295Z,16.72
2022-11-24T03:34:24.181Z,16.67
2022-11-24T03:36:54.099Z,16.65
2022-11-24T03:39:24.595Z,16.65
2022-11-24T03:41:54.724Z,16.61
2022-11-24T03:44:24.858Z,16.58
2022-11-24T03:46:54.787Z,16.55
2022-11-24T03:49:24.678Z,16.49
2022-11-24T03:51:54.671Z,16.45
2022-11-24T03:54:24.800Z,16.38
2022-11-24T03:56:55.211Z,16.37
2022-11-24T03:59:25.516Z,16.35
2022-11-24T04:01:55.599Z,16.34
2022-11-24T04:04:25.565Z,16.27
2022-11-24T04:06:55.487Z,16.25
2022-11-24T04:09:25.894Z,16.24
2022-11-24T04:12:14.342Z,16.22
2022-11-24T04:14:44.798Z,16.25
2022-11-24T04:17:14.722Z,16.22
2022-11-24T04:19:45.025Z,16.24
2022-11-24T04:22:14.900Z,16.18
2022-11-24T04:24:44.804Z,16.14
2022-11-24T04:27:14.699Z,16.09
2022-11-24T04:29:44.605Z,16.03
2022-11-24T04:32:14.575Z,16.01
2022-11-24T04:34:44.665Z,16.01
2022-11-24T04:37:14.585Z,15.96
2022-11-24T04:39:44.436Z,15.93
2022-11-24T04:42:14.950Z,15.93
2022-11-24T04:44:45.230Z,15.91
2022-11-24T04:47:21.563Z,15.87
2022-11-24T04:49:52.912Z,15.86
2022-11-24T04:52:24.704Z,15.83
2022-11-24T04:54:55.028Z,15.78
2022-11-24T04:57:27.827Z,15.79
2022-11-24T04:59:58.686Z,15.78
2022-11-24T05:02:28.814Z,15.80
2022-11-24T05:04:58.746Z,15.76
2022-11-24T05:07:28.750Z,15.70
2022-11-24T05:10:16.897Z,15.66
2022-11-24T05:12:55.338Z,15.65
2022-11-24T05:15:25.643Z,15.63
2022-11-24T05:17:55.849Z,15.62
2022-11-24T05:20:26.551Z,15.60
2022-11-24T05:22:57.557Z,15.56
2022-11-24T05:25:28.745Z,15.52
2022-11-24T05:28:05.230Z,15.49
2022-11-24T05:30:35.389Z,15.49
2022-11-24T05:33:10.732Z,15.49
2022-11-24T05:35:41.625Z,15.48
2022-11-24T05:38:11.489Z,15.43
2022-11-24T05:40:41.787Z,15.41
2022-11-24T05:43:15.632Z,15.36
2022-11-24T05:45:47.080Z,15.35
2022-11-24T05:48:17.697Z,15.29
2022-11-24T05:50:47.634Z,15.31
2022-11-24T05:53:17.518Z,15.28
2022-11-24T05:55:47.449Z,15.25
2022-11-24T05:58:17.516Z,15.21
2022-11-24T06:00:47.903Z,15.20
2022-11-24T06:03:18.235Z,15.17
2022-11-24T06:05:49.026Z,15.17
2022-11-24T06:08:19.351Z,15.12
2022-11-24T06:10:50.179Z,15.08
2022-11-24T06:13:21.031Z,15.11
2022-11-24T06:15:51.580Z,15.07
2022-11-24T06:18:21.474Z,15.04
2022-11-24T06:21:09.776Z,15.00
2022-11-24T06:23:42.099Z,14.92
2022-11-24T06:26:12.713Z,14.88
2022-11-24T06:28:42.936Z,14.87
2022-11-24T06:31:13.081Z,14.84
2022-11-24T06:33:43.059Z,14.85
2022-11-24T06:36:16.168Z,14.79
2022-11-24T06:38:46.701Z,14.71
2022-11-24T06:41:17.882Z,14.71
2022-11-24T06:43:48.754Z,14.73
2022-11-24T06:46:18.766Z,14.73
2022-11-24T06:48:49.646Z,14.67
2022-11-24T06:51:20.211Z,14.63
2022-11-24T06:53:50.114Z,14.60
2022-11-24T06:56:22.114Z,14.67
2022-11-24T06:58:55.097Z,14.69
2022-11-24T07:01:28.092Z,14.63
2022-11-24T07:04:00.399Z,14.64
2022-11-24T07:06:30.541Z,14.59
2022-11-24T07:09:01.649Z,14.59
2022-11-24T07:11:32.087Z,14.56
2022-11-24T07:14:02.474Z,14.44
2022-11-24T07:16:32.872Z,14.42
2022-11-24T07:19:04.618Z,14.40
2022-11-24T07:21:35.218Z,14.34
2022-11-24T07:24:05.234Z,14.33
2022-11-24T07:26:38.450Z,14.32
2022-11-24T07:29:09.127Z,14.32
2022-11-24T07:31:39.395Z,14.33
2022-11-24T07:34:09.431Z,14.30
2022-11-24T07:36:39.339Z,14.30
2022-11-24T07:39:09.222Z,14.28
2022-11-24T07:41:39.582Z,14.26
2022-11-24T07:44:09.725Z,14.26
2022-11-24T07:46:40.040Z,14.21
2022-11-24T07:49:09.874Z,14.13
2022-11-24T07:51:40.027Z,14.13
2022-11-24T07:54:09.978Z,14.09
2022-11-24T07:56:40.004Z,14.08
2022-11-24T07:59:10.092Z,14.02
2022-11-24T08:01:40.470Z,14.01
2022-11-24T08:04:10.678Z,14.08
2022-11-24T08:06:44.646Z,14.09
2022-11-24T08:09:17.585Z,14.05
2022-11-24T08:11:48.483Z,14.01
2022-11-24T08:14:19.276Z,13.99
2022-11-24T08:16:49.601Z,13.94
2022-11-24T08:19:19.659Z,13.94
2022-11-24T08:21:49.507Z,13.97
2022-11-24T08:24:19.415Z,13.97
2022-11-24T08:26:49.790Z,13.98
2022-11-24T08:29:19.693Z,13.97
2022-11-24T08:31:50.049Z,13.99
2022-11-24T08:34:19.929Z,13.97
2022-11-24T08:36:49.809Z,13.95
2022-11-24T08:39:20.197Z,13.95
2022-11-24T08:41:50.370Z,13.95
2022-11-24T08:44:21.328Z,13.94
2022-11-24T08:46:52.091Z,13.89
2022-11-24T08:49:24.478Z,13.94
2022-11-24T08:51:55.508Z,13.92
2022-11-24T08:54:27.409Z,14.01
2022-11-24T08:56:57.526Z,14.56
2022-11-24T08:59:27.490Z,15.00
2022-11-24T09:01:57.730Z,15.36
2022-11-24T09:04:28.208Z,15.70
2022-11-24T09:06:59.152Z,15.99
2022-11-24T09:09:30.033Z,16.21
2022-11-24T09:12:01.005Z,16.42
2022-11-24T09:14:31.818Z,16.67
2022-11-24T09:17:02.571Z,16.90
2022-11-24T09:19:33.072Z,17.13
2022-11-24T09:22:03.428Z,17.34
2022-11-24T09:24:33.386Z,17.63
2022-11-24T09:27:03.787Z,17.95
2022-11-24T09:29:34.135Z,18.18
2022-11-24T09:32:06.921Z,18.30
2022-11-24T09:34:37.473Z,18.53
2022-11-24T09:37:07.384Z,18.80
2022-11-24T09:39:37.747Z,19.04
2022-11-24T09:42:16.518Z,19.32
2022-11-24T09:45:26.280Z,19.75
2022-11-24T09:48:17.423Z,19.94
2022-11-24T09:50:49.954Z,20.18
2022-11-24T09:53:39.893Z,20.47
2022-11-24T09:56:32.500Z,20.88
2022-11-24T09:59:23.220Z,21.00
2022-11-24T10:01:54.239Z,21.37
2022-11-24T10:04:29.889Z,21.58
2022-11-24T10:07:11.653Z,21.71
2022-11-24T10:10:10.174Z,22.11
2022-11-24T10:12:49.288Z,22.45
2022-11-24T10:15:53.872Z,22.72
2022-11-24T10:18:36.339Z,23.15
2022-11-24T10:21:28.000Z,23.07
2022-11-24T10:24:09.258Z,23.20
2022-11-24T10:26:41.718Z,23.08
2022-11-24T10:29:15.022Z,23.45
2022-11-24T10:31:47.291Z,23.40
2022-11-24T10:34:24.448Z,23.79
2022-11-24T10:37:11.372Z,23.92
2022-11-24T10:40:00.426Z,24.26
2022-11-24T10:42:38.555Z,24.89
2022-11-24T10:45:18.749Z,25.38
2022-11-24T10:47:51.784Z,25.16
2022-11-24T10:50:32.657Z,25.22
2022-11-24T10:53:32.434Z,25.79
2022-11-24T10:56:06.549Z,26.17
2022-11-24T10:58:39.841Z,25.83
2022-11-24T11:01:15.831Z,26.45
2022-11-24T11:03:59.360Z,27.04
2022-11-24T11:06:32.555Z,27.31
2022-11-24T11:09:09.330Z,27.43
2022-11-24T11:11:41.121Z,27.54
2022-11-24T11:14:14.194Z,27.27
2022-11-24T11:16:57.377Z,26.87
2022-11-24T11:19:53.216Z,27.37
2022-11-24T11:22:28.216Z,28.05
2022-11-24T11:25:08.483Z,28.59
2022-11-24T11:27:40.916Z,28.39
2022-11-24T11:36:18.118Z,28.45
2022-11-24T11:38:49.727Z,29.01
2022-11-24T11:41:35.950Z,29.36
2022-11-24T11:44:45.552Z,29.53
2022-11-24T11:47:27.468Z,29.62
2022-11-24T11:49:59.219Z,28.46
2022-11-24T11:52:48.299Z,27.89
2022-11-24T11:55:50.033Z,29.15
2022-11-24T11:58:20.844Z,28.36
2022-11-24T12:01:14.291Z,28.47
2022-11-24T12:03:48.949Z,28.86
2022-11-24T12:06:39.348Z,29.96
2022-11-24T12:09:46.892Z,30.02
2022-11-24T12:12:51.796Z,30.09
2022-11-24T12:15:38.190Z,29.18
2022-11-24T12:18:33.521Z,29.80
2022-11-24T12:21:37.397Z,31.37
2022-11-24T12:24:19.903Z,30.91
2022-11-24T12:27:22.843Z,29.38
2022-11-24T12:30:12.589Z,28.95
2022-11-24T12:33:06.653Z,28.83
2022-11-24T12:35:40.535Z,30.42
2022-11-24T12:38:32.482Z,30.12
2022-11-24T12:41:46.852Z,28.93
2022-11-24T12:44:36.448Z,29.41
2022-11-24T12:47:22.157Z,29.34
2022-11-24T12:50:11.367Z,29.89
2022-11-24T12:52:47.612Z,30.91
2022-11-24T12:55:22.355Z,30.69
2022-11-24T12:58:11.411Z,30.00
2022-11-24T13:01:16.782Z,30.33
2022-11-24T13:04:08.814Z,32.33
2022-11-24T13:07:00.632Z,31.74
2022-11-24T13:09:31.364Z,31.19
2022-11-24T13:12:17.742Z,30.61
2022-11-24T13:14:50.302Z,30.61
2022-11-24T13:18:01.414Z,31.87
2022-11-24T13:20:41.773Z,32.12
2022-11-24T13:23:31.757Z,31.37
2022-11-24T13:26:17.175Z,31.19
2022-11-24T13:29:23.708Z,31.81
2022-11-24T13:32:24.350Z,31.00
2022-11-24T13:34:56.178Z,31.30
2022-11-24T13:37:35.508Z,31.80
2022-11-24T13:40:18.187Z,32.87
2022-11-24T13:42:58.429Z,31.81
2022-11-24T13:45:41.909Z,32.09
2022-11-24T13:48:21.692Z,32.58
2022-11-24T13:50:52.612Z,34.17
2022-11-24T13:53:46.754Z,32.69
2022-11-24T13:56:17.546Z,32.21
2022-11-24T13:58:53.882Z,32.00
2022-11-24T14:01:27.837Z,33.04
2022-11-24T14:04:43.253Z,34.86
2022-11-24T14:07:14.523Z,34.40
2022-11-24T14:09:53.552Z,33.58
2022-11-24T14:12:26.515Z,33.02
2022-11-24T14:15:23.780Z,32.87
2022-11-24T14:17:55.538Z,33.08
2022-11-24T14:20:27.599Z,33.92
2022-11-24T14:22:57.883Z,34.10
2022-11-24T14:25:35.741Z,33.03
2022-11-24T14:28:27.846Z,33.65
2022-11-24T14:31:11.556Z,33.91
2022-11-24T14:33:41.768Z,35.66
2022-11-24T14:36:17.308Z,36.36
2022-11-24T14:38:49.850Z,34.43
2022-11-24T14:41:27.260Z,35.52
2022-11-24T14:44:12.677Z,35.93
2022-11-24T14:46:43.809Z,34.29
2022-11-24T14:49:23.409Z,33.59
2022-11-24T14:52:09.971Z,34.86
2022-11-24T14:54:54.680Z,34.46
2022-11-24T14:57:31.858Z,33.24
2022-11-24T15:00:18.387Z,33.03
2022-11-24T15:02:56.567Z,33.61
2022-11-24T15:05:47.935Z,34.80
2022-11-24T15:08:18.610Z,33.89
2022-11-24T15:10:49.364Z,34.47
2022-11-24T15:13:25.117Z,33.21
2022-11-24T15:16:03.579Z,33.68
2022-11-24T15:18:57.753Z,34.93
2022-11-24T15:21:36.716Z,33.82
2022-11-24T15:24:18.829Z,33.62
2022-11-24T15:26:49.430Z,34.17
2022-11-24T15:29:19.642Z,34.70
2022-11-24T15:31:52.791Z,33.86
2022-11-24T15:34:23.608Z,33.57
2022-11-24T15:36:53.542Z,33.85
2022-11-24T15:39:23.871Z,33.74
2022-11-24T15:41:53.709Z,33.34
2022-11-24T15:44:24.203Z,33.26
2022-11-24T15:46:56.357Z,33.61
2022-11-24T15:49:28.044Z,33.86
2022-11-24T15:51:58.723Z,33.67
2022-11-24T15:54:28.854Z,34.13
2022-11-24T15:56:59.177Z,33.94
2022-11-24T15:59:29.051Z,34.17
2022-11-24T16:01:59.905Z,34.79
2022-11-24T16:04:29.841Z,34.70
2022-11-24T16:07:00.451Z,34.77
2022-11-24T16:09:30.833Z,34.06
2022-11-24T16:12:00.648Z,33.88
2022-11-24T16:14:30.565Z,34.17
2022-11-24T16:17:00.455Z,33.69
2022-11-24T16:19:30.737Z,33.95
2022-11-24T16:22:00.619Z,33.82
2022-11-24T16:24:31.035Z,34.01
2022-11-24T16:27:00.922Z,33.86
2022-11-24T16:29:36.899Z,33.69
2022-11-24T16:32:08.514Z,34.06
2022-11-24T16:34:38.416Z,33.69
2022-11-24T16:37:09.585Z,33.88
2022-11-24T16:39:39.946Z,34.29
2022-11-24T16:42:09.876Z,34.13
2022-11-24T16:44:39.775Z,34.67
2022-11-24T16:47:09.702Z,34.39
2022-11-24T16:49:40.510Z,33.94
2022-11-24T16:52:11.067Z,33.37
2022-11-24T16:54:41.102Z,34.02
2022-11-24T16:57:15.086Z,34.12
2022-11-24T16:59:47.358Z,33.75
2022-11-24T17:02:18.635Z,34.19
2022-11-24T17:04:50.938Z,33.92
2022-11-24T17:07:22.918Z,34.32
2022-11-24T17:09:53.451Z,34.06
2022-11-24T17:12:23.856Z,34.19
2022-11-24T17:15:24.394Z,33.98
2022-11-24T17:18:08.507Z,33.79
2022-11-24T17:20:37.287Z,33.69
2022-11-24T17:23:08.567Z,33.17
2022-11-24T17:25:39.108Z,33.53
2022-11-24T17:28:08.970Z,32.97
2022-11-24T17:30:39.555Z,33.30
2022-11-24T17:33:09.745Z,34.31
2022-11-24T17:35:39.928Z,34.04
2022-11-24T17:38:10.035Z,33.54
2022-11-24T17:40:39.930Z,33.72
2022-11-24T17:43:11.080Z,33.02
2022-11-24T17:45:42.233Z,32.59
2022-11-24T17:48:13.269Z,32.63
2022-11-24T17:50:43.171Z,32.69
2022-11-24T17:53:13.084Z,32.56
2022-11-24T17:55:43.298Z,32.75
2022-11-24T17:58:13.230Z,33.26
2022-11-24T18:00:43.126Z,34.06
2022-11-24T18:03:13.065Z,33.92
2022-11-24T18:05:43.074Z,33.38
2022-11-24T18:08:14.292Z,34.02
2022-11-24T18:10:45.610Z,34.02
2022-11-24T18:13:34.310Z,32.95
2022-11-24T18:16:10.050Z,32.48
2022-11-24T18:18:43.715Z,32.45
2022-11-24T18:21:19.954Z,32.35
2022-11-24T18:23:50.421Z,32.35
2022-11-24T18:26:20.494Z,32.17
2022-11-24T18:28:51.839Z,31.80
2022-11-24T18:31:23.565Z,31.64
2022-11-24T18:33:53.948Z,32.24
2022-11-24T18:36:29.939Z,32.17
2022-11-24T18:39:07.569Z,31.63
2022-11-24T18:41:38.693Z,31.44
2022-11-24T18:44:08.952Z,31.60
2022-11-24T18:46:40.091Z,31.56
2022-11-24T18:49:11.927Z,31.32
2022-11-24T18:51:43.820Z,31.20
2022-11-24T18:54:13.816Z,30.55
2022-11-24T18:56:43.810Z,29.90
2022-11-24T18:59:33.893Z,30.37
2022-11-24T19:02:04.992Z,30.64
2022-11-24T19:04:35.839Z,30.45
2022-11-24T19:07:06.754Z,30.42
2022-11-24T19:09:37.165Z,30.55
2022-11-24T19:12:10.403Z,30.74
2022-11-24T19:14:41.364Z,30.83
2022-11-24T19:17:11.276Z,31.15
2022-11-24T19:19:41.548Z,31.63
2022-11-24T19:22:11.626Z,31.06
2022-11-24T19:24:42.312Z,30.99
2022-11-24T19:27:12.258Z,31.08
2022-11-24T19:29:43.277Z,30.60
2022-11-24T19:32:14.168Z,30.38
2022-11-24T19:34:47.772Z,30.21
2022-11-24T19:37:19.960Z,30.16
2022-11-24T19:39:51.308Z,30.20
2022-11-24T19:42:21.917Z,30.25
2022-11-24T19:44:56.364Z,30.00
2022-11-24T19:47:29.839Z,29.97
2022-11-24T19:50:00.287Z,29.93
2022-11-24T19:52:30.291Z,29.86
2022-11-24T19:55:01.290Z,29.86
2022-11-24T19:57:31.846Z,29.80
2022-11-24T20:00:01.840Z,29.66
2022-11-24T20:02:33.415Z,29.76
2022-11-24T20:05:04.052Z,29.67
2022-11-24T20:07:34.547Z,29.59
2022-11-24T20:10:07.943Z,29.65
2022-11-24T20:12:39.338Z,29.63
2022-11-24T20:15:10.104Z,29.55
2022-11-24T20:17:40.448Z,29.46
2022-11-24T20:20:11.344Z,29.34
2022-11-24T20:22:42.400Z,29.38
2022-11-24T20:25:12.809Z,29.25
2022-11-24T20:27:42.963Z,29.14
2022-11-24T20:30:14.761Z,29.03
2022-11-24T20:32:45.889Z,29.00
2022-11-24T20:35:18.373Z,29.08
2022-11-24T20:37:49.458Z,28.93
2022-11-24T20:40:21.386Z,28.90
2022-11-24T20:42:52.918Z,28.80
2022-11-24T20:45:23.654Z,28.74
2022-11-24T20:47:53.782Z,28.67
2022-11-24T20:50:24.168Z,28.54
2022-11-24T20:52:54.183Z,28.40
2022-11-24T20:55:25.622Z,28.15
2022-11-24T20:57:55.935Z,27.80
2022-11-24T21:00:26.342Z,27.72
2022-11-24T21:02:58.820Z,27.74
2022-11-24T21:05:30.153Z,27.57
2022-11-24T21:08:00.632Z,27.53
2022-11-24T21:10:31.131Z,27.29
2022-11-24T21:13:01.110Z,27.10
2022-11-24T21:15:31.465Z,26.76
2022-11-24T21:18:01.760Z,26.53
2022-11-24T21:20:31.737Z,26.35
2022-11-24T21:23:01.734Z,26.20
2022-11-24T21:25:33.063Z,26.05
2022-11-24T21:28:03.414Z,25.94
2022-11-24T21:30:35.239Z,25.86
2022-11-24T21:33:07.198Z,25.67
2022-11-24T21:35:38.902Z,25.49
2022-11-24T21:38:09.277Z,25.29
2022-11-24T21:40:39.306Z,25.18
2022-11-24T21:43:10.189Z,25.07
2022-11-24T21:45:40.863Z,24.89
2022-11-24T21:48:12.007Z,24.71
2022-11-24T21:50:42.042Z,24.60
2022-11-24T21:53:13.125Z,24.41
2022-11-24T21:55:44.945Z,24.29
2022-11-24T21:58:16.537Z,24.14
2022-11-24T22:00:46.647Z,24.00
2022-11-24T22:03:16.975Z,23.88
2022-11-24T22:06:01.373Z,23.69
2022-11-24T22:08:32.919Z,23.58
2022-11-24T22:11:08.218Z,23.48
2022-11-24T22:13:39.157Z,23.35
2022-11-24T22:16:15.906Z,23.24
2022-11-24T22:18:47.391Z,23.14
2022-11-24T22:21:34.409Z,23.07
2022-11-24T22:24:05.150Z,22.94
2022-11-24T22:26:35.872Z,22.82
2022-11-24T22:29:07.255Z,22.74
2022-11-24T22:31:37.653Z,22.63
2022-11-24T22:34:09.310Z,22.56
2022-11-24T22:36:39.943Z,22.41
2022-11-24T22:39:14.019Z,22.29
2022-11-24T22:41:44.286Z,22.16
2022-11-24T22:44:14.758Z,22.12
2022-11-24T22:46:45.218Z,22.04
2022-11-24T22:49:15.259Z,21.97
2022-11-24T22:51:45.216Z,21.91
2022-11-24T22:54:15.455Z,21.80
2022-11-24T22:56:45.467Z,21.68
2022-11-24T22:59:15.886Z,21.56
2022-11-24T23:01:46.454Z,21.47
2022-11-24T23:04:16.614Z,21.39
2022-11-24T23:06:47.012Z,21.23
2022-11-24T23:09:17.089Z,21.15
2022-11-24T23:11:47.455Z,20.98
2022-11-24T23:14:18.490Z,20.98
2022-11-24T23:16:48.803Z,20.98
2022-11-24T23:19:19.105Z,20.92
2022-11-24T23:21:49.370Z,20.88
2022-11-24T23:24:19.886Z,20.85
2022-11-24T23:26:50.135Z,20.75
2022-11-24T23:29:20.215Z,20.69
2022-11-24T23:31:50.794Z,20.61
2022-11-24T23:34:21.277Z,20.48
2022-11-24T23:36:51.305Z,20.41
2022-11-24T23:39:21.272Z,20.37
2022-11-24T23:41:51.828Z,20.27
2022-11-24T23:44:21.829Z,20.20
2022-11-24T23:46:52.195Z,20.18
2022-11-24T23:49:22.382Z,20.17
2022-11-24T23:51:52.941Z,20.09
2022-11-24T23:54:23.313Z,20.01
2022-11-24T23:56:53.468Z,19.93
2022-11-24T23:59:24.068Z,19.85
